Time;durP1;ratioP1;P1;durP2;ratioP2;P2;SDS_P1;SDS_P2;PMS_P1;PMS_P2;Temp;Humidity;BMP_temperature;BMP_pressure;BME280_temperature;BME280_humidity;BME280_pressure;Samples;Min_cycle;Max_cycle;Signal;HPM_P1;HPM_P2
2023/01/06 00:03:10;;;;;;;6.53;3.42;;;;;;;;;;8332223;28;20136;-85
2023/01/06 00:07:15;;;;;;;6.78;4.18;;;;;;;;;;8333155;28;20064;-85
2023/01/06 00:11:19;;;;;;;6.05;3.83;;;;;;;;;;8331967;28;20045;-87
2023/01/06 00:15:22;;;;;;;2.17;1.98;;;;;;;;;;8332005;28;20038;-85
2023/01/06 00:19:28;;;;;;;5.75;3.22;;;;;;;;;;8331609;28;20037;-85
2023/01/06 00:23:34;;;;;;;8.50;4.72;;;;;;;;;;8333528;28;20041;-85
2023/01/06 00:27:39;;;;;;;8.80;5.35;;;;;;;;;;8337851;28;20095;-85
2023/01/06 00:31:43;;;;;;;10.73;4.45;;;;;;;;;;8338559;28;20041;-85
2023/01/06 00:35:48;;;;;;;3.80;2.58;;;;;;;;;;8337975;28;20065;-85
2023/01/06 00:39:52;;;;;;;5.78;3.17;;;;;;;;;;8337479;28;20115;-85
2023/01/06 00:43:56;;;;;;;5.90;3.75;;;;;;;;;;8337502;28;20041;-86
2023/01/06 00:48:00;;;;;;;6.90;4.53;;;;;;;;;;8336954;28;20107;-85
2023/01/06 00:52:05;;;;;;;8.93;4.93;;;;;;;;;;8336778;28;20055;-85
2023/01/06 00:56:09;;;;;;;7.75;4.15;;;;;;;;;;8337022;28;20045;-85
2023/01/06 01:00:13;;;;;;;8.32;4.57;;;;;;;;;;8337201;28;20124;-85
2023/01/06 01:04:18;;;;;;;9.52;4.68;;;;;;;;;;8336632;28;20061;-87
2023/01/06 01:08:22;;;;;;;9.15;4.65;;;;;;;;;;8336925;28;20057;-83
2023/01/06 01:12:27;;;;;;;7.40;3.70;;;;;;;;;;8337800;28;20072;-85
2023/01/06 01:16:30;;;;;;;8.98;4.20;;;;;;;;;;8336758;28;20037;-85
2023/01/06 01:20:35;;;;;;;5.28;3.78;;;;;;;;;;8336676;28;20037;-90
2023/01/06 01:24:41;;;;;;;8.27;4.05;;;;;;;;;;8337065;28;20061;-84
2023/01/06 01:28:45;;;;;;;6.65;3.53;;;;;;;;;;8336521;28;20045;-85
2023/01/06 01:32:48;;;;;;;8.15;4.32;;;;;;;;;;8335715;28;20049;-88
2023/01/06 01:36:55;;;;;;;5.93;3.67;;;;;;;;;;8335226;28;20111;-85
2023/01/06 01:41:00;;;;;;;8.20;4.47;;;;;;;;;;8335466;28;20046;-84
2023/01/06 01:45:06;;;;;;;8.88;4.50;;;;;;;;;;8335322;28;20056;-85
2023/01/06 01:49:15;;;;;;;7.53;4.00;;;;;;;;;;8335779;28;20045;-85
2023/01/06 01:53:22;;;;;;;6.82;3.60;;;;;;;;;;8336079;28;20072;-84
2023/01/06 01:57:33;;;;;;;7.72;4.20;;;;;;;;;;8335981;28;20075;-85
2023/01/06 02:01:37;;;;;;;9.63;4.87;;;;;;;;;;8335428;28;20069;-85
2023/01/06 02:05:42;;;;;;;8.98;4.60;;;;;;;;;;8335252;28;20041;-85
2023/01/06 02:14:12;;;;;;;8.90;5.22;;;;;;;;;;8377972;23;20102;-85
2023/01/06 02:18:29;;;;;;;7.07;3.88;;;;;;;;;;8227013;28;20094;-85
2023/01/06 02:23:03;;;;;;;8.02;3.97;;;;;;;;;;8234141;28;20043;-85
2023/01/06 02:27:44;;;;;;;8.45;4.55;;;;;;;;;;8233751;28;20078;-85
2023/01/06 02:32:02;;;;;;;6.03;3.90;;;;;;;;;;8180033;28;20078;-85
2023/01/06 02:36:16;;;;;;;8.65;5.03;;;;;;;;;;8232594;28;20047;-85
2023/01/06 02:40:34;;;;;;;9.63;4.88;;;;;;;;;;8233139;28;20059;-86
2023/01/06 02:44:46;;;;;;;9.70;4.72;;;;;;;;;;8222699;28;20054;-85
2023/01/06 02:49:00;;;;;;;9.40;5.07;;;;;;;;;;8228482;28;20142;-85
2023/01/06 02:53:10;;;;;;;8.18;4.63;;;;;;;;;;8220360;28;20129;-85
2023/01/06 02:57:23;;;;;;;7.53;3.33;;;;;;;;;;8225786;28;20046;-85
2023/01/06 03:01:33;;;;;;;5.40;3.63;;;;;;;;;;8224672;28;20126;-86
2023/01/06 03:05:38;;;;;;;6.78;4.03;;;;;;;;;;8214848;28;20051;-86
2023/01/06 03:09:41;;;;;;;9.65;4.25;;;;;;;;;;8221127;28;20046;-86
2023/01/06 03:13:49;;;;;;;8.73;4.65;;;;;;;;;;8223809;28;20086;-86
2023/01/06 03:17:52;;;;;;;10.02;5.13;;;;;;;;;;8221572;28;20442;-85
2023/01/06 03:21:57;;;;;;;9.00;5.45;;;;;;;;;;8231228;28;20058;-85
2023/01/06 03:26:00;;;;;;;8.00;4.68;;;;;;;;;;8231852;28;20073;-85
2023/01/06 03:30:08;;;;;;;7.50;4.75;;;;;;;;;;8231461;28;20054;-86
2023/01/06 03:34:19;;;;;;;7.03;4.57;;;;;;;;;;8224417;28;20145;-86
2023/01/06 03:38:35;;;;;;;14.52;5.05;;;;;;;;;;8232302;28;20139;-86
2023/01/06 03:47:06;;;;;;;6.70;3.95;;;;;;;;;;8231037;28;20082;-86
2023/01/06 03:51:18;;;;;;;9.52;5.22;;;;;;;;;;8231513;28;20046;-86
2023/01/06 03:55:25;;;;;;;;;;;;;;;;;;8231749;28;20134;-86
2023/01/06 03:59:30;;;;;;;11.23;6.03;;;;;;;;;;8236134;28;19925;-86
2023/01/06 04:03:33;;;;;;;11.00;5.90;;;;;;;;;;8225679;28;20043;-86
2023/01/06 04:07:36;;;;;;;7.40;4.45;;;;;;;;;;8235340;28;20054;-86
2023/01/06 04:16:00;;;;;;;18.83;7.03;;;;;;;;;;8211481;28;20406;-86
2023/01/06 04:20:03;;;;;;;12.80;6.55;;;;;;;;;;8208552;28;20109;-86
2023/01/06 04:24:06;;;;;;;13.75;7.63;;;;;;;;;;8217131;28;20043;-85
2023/01/06 04:28:10;;;;;;;11.40;6.72;;;;;;;;;;8196812;28;20119;-86
2023/01/06 04:32:13;;;;;;;15.68;6.75;;;;;;;;;;8221165;28;20051;-89
2023/01/06 04:36:16;;;;;;;16.55;7.07;;;;;;;;;;8215597;28;20131;-86
2023/01/06 04:40:19;;;;;;;13.57;6.50;;;;;;;;;;8199914;28;20133;-86
2023/01/06 04:44:23;;;;;;;13.90;7.20;;;;;;;;;;8203673;28;20074;-85
2023/01/06 04:48:26;;;;;;;14.10;6.85;;;;;;;;;;8205227;28;20074;-86
2023/01/06 04:52:28;;;;;;;10.70;6.22;;;;;;;;;;8219309;28;20055;-85
2023/01/06 04:56:31;;;;;;;13.25;5.85;;;;;;;;;;8220892;28;20054;-85
2023/01/06 05:00:35;;;;;;;17.40;5.85;;;;;;;;;;8206830;28;20464;-90
2023/01/06 05:04:38;;;;;;;14.80;7.15;;;;;;;;;;8207876;28;20133;-86
2023/01/06 05:08:41;;;;;;;12.93;7.07;;;;;;;;;;8207176;28;20055;-86
2023/01/06 05:12:44;;;;;;;10.82;5.35;;;;;;;;;;8224453;28;20503;-85
2023/01/06 05:16:48;;;;;;;12.20;6.57;;;;;;;;;;8236180;28;20475;-89
2023/01/06 05:20:51;;;;;;;11.90;6.68;;;;;;;;;;8234763;28;20054;-85
2023/01/06 05:24:54;;;;;;;10.73;6.45;;;;;;;;;;8238231;28;20105;-86
2023/01/06 05:28:57;;;;;;;9.77;6.28;;;;;;;;;;8235006;28;20077;-85
2023/01/06 05:33:01;;;;;;;18.73;8.48;;;;;;;;;;8231931;28;20061;-86
2023/01/06 05:37:04;;;;;;;11.07;6.45;;;;;;;;;;8226001;28;20105;-85
2023/01/06 05:41:07;;;;;;;12.00;6.85;;;;;;;;;;8232392;28;20046;-85
2023/01/06 05:45:11;;;;;;;13.35;6.53;;;;;;;;;;8234821;28;20047;-85
2023/01/06 05:49:15;;;;;;;13.45;6.78;;;;;;;;;;8234558;28;20546;-88
2023/01/06 05:53:19;;;;;;;16.50;7.25;;;;;;;;;;8234707;28;20465;-85
2023/01/06 05:57:21;;;;;;;14.48;7.60;;;;;;;;;;8234955;28;20471;-86
2023/01/06 06:01:26;;;;;;;12.48;6.82;;;;;;;;;;8234290;28;20089;-86
2023/01/06 06:05:30;;;;;;;12.23;6.80;;;;;;;;;;8234032;28;20058;-86
2023/01/06 06:09:32;;;;;;;13.25;6.93;;;;;;;;;;8234143;28;20043;-86
2023/01/06 06:13:35;;;;;;;13.18;7.60;;;;;;;;;;8233918;28;20578;-86
2023/01/06 06:17:38;;;;;;;12.70;6.95;;;;;;;;;;8232833;28;20082;-85
2023/01/06 06:21:42;;;;;;;18.13;8.70;;;;;;;;;;8233204;28;20047;-85
2023/01/06 06:25:45;;;;;;;15.35;7.50;;;;;;;;;;8221734;28;20415;-84
2023/01/06 06:29:48;;;;;;;17.27;8.88;;;;;;;;;;8215949;28;20047;-85
2023/01/06 06:33:51;;;;;;;16.00;8.65;;;;;;;;;;8223171;28;20043;-84
2023/01/06 06:37:56;;;;;;;14.88;7.80;;;;;;;;;;8236733;28;20046;-85
2023/01/06 06:41:58;;;;;;;17.45;8.05;;;;;;;;;;8232772;28;20049;-84
2023/01/06 06:46:02;;;;;;;17.08;8.65;;;;;;;;;;8232880;28;20145;-86
2023/01/06 06:50:05;;;;;;;18.33;9.10;;;;;;;;;;8232673;28;20495;-87
2023/01/06 06:54:09;;;;;;;15.30;7.68;;;;;;;;;;8232888;28;20121;-86
2023/01/06 06:58:12;;;;;;;17.23;9.90;;;;;;;;;;8232662;28;20051;-87
2023/01/06 07:02:15;;;;;;;16.88;9.32;;;;;;;;;;8232687;28;20065;-85
2023/01/06 07:06:21;;;;;;;15.65;8.10;;;;;;;;;;8232215;28;20139;-85
2023/01/06 07:10:25;;;;;;;20.67;9.70;;;;;;;;;;8215328;28;20055;-85
2023/01/06 07:14:28;;;;;;;17.67;8.70;;;;;;;;;;8207312;28;20055;-85
2023/01/06 07:18:32;;;;;;;15.07;8.18;;;;;;;;;;8202820;28;20047;-86
2023/01/06 07:22:37;;;;;;;15.40;8.50;;;;;;;;;;8208977;28;20051;-87
2023/01/06 07:26:42;;;;;;;18.92;9.82;;;;;;;;;;8200528;29;20047;-85
2023/01/06 07:30:45;;;;;;;12.50;7.00;;;;;;;;;;8199749;29;20572;-84
2023/01/06 07:34:48;;;;;;;13.02;7.18;;;;;;;;;;8199778;28;20086;-85
2023/01/06 07:38:51;;;;;;;14.23;6.72;;;;;;;;;;8200103;29;20047;-85
2023/01/06 07:42:56;;;;;;;12.30;5.97;;;;;;;;;;8199727;29;20055;-86
2023/01/06 07:46:59;;;;;;;9.88;6.13;;;;;;;;;;8199796;29;20051;-86
2023/01/06 07:51:02;;;;;;;13.07;5.90;;;;;;;;;;8199347;29;20105;-86
2023/01/06 07:55:05;;;;;;;13.98;7.85;;;;;;;;;;8199105;29;20055;-86
2023/01/06 07:59:11;;;;;;;11.52;6.75;;;;;;;;;;8198991;29;20071;-86
2023/01/06 08:03:13;;;;;;;10.35;6.05;;;;;;;;;;8198163;29;20073;-85
2023/01/06 08:07:18;;;;;;;10.10;6.50;;;;;;;;;;8193109;28;20117;-91
2023/01/06 08:11:21;;;;;;;11.48;6.10;;;;;;;;;;8222262;28;20058;-88
2023/01/06 08:15:26;;;;;;;14.85;8.18;;;;;;;;;;8223153;28;20047;-90
2023/01/06 08:19:31;;;;;;;18.17;8.60;;;;;;;;;;8229765;28;20108;-88
2023/01/06 08:23:35;;;;;;;17.35;9.10;;;;;;;;;;8233963;28;20114;-89
2023/01/06 08:27:38;;;;;;;16.65;7.57;;;;;;;;;;8229996;28;20135;-91
2023/01/06 08:31:42;;;;;;;17.33;6.45;;;;;;;;;;8223965;28;20588;-85
2023/01/06 08:35:46;;;;;;;12.45;7.03;;;;;;;;;;8221680;28;20054;-86
2023/01/06 08:39:49;;;;;;;16.73;8.63;;;;;;;;;;8221601;28;20065;-85
2023/01/06 08:43:52;;;;;;;20.02;10.00;;;;;;;;;;8227224;28;20038;-85
2023/01/06 08:47:56;;;;;;;19.85;10.18;;;;;;;;;;8236997;28;20050;-86
2023/01/06 08:51:59;;;;;;;14.15;7.45;;;;;;;;;;8237022;28;20479;-85
2023/01/06 08:56:02;;;;;;;15.82;8.43;;;;;;;;;;8223686;28;20055;-85
2023/01/06 09:00:07;;;;;;;17.27;8.25;;;;;;;;;;8226604;28;20055;-86
2023/01/06 09:04:12;;;;;;;15.52;8.18;;;;;;;;;;8222189;28;20597;-87
2023/01/06 09:08:15;;;;;;;30.27;12.23;;;;;;;;;;8226471;28;20046;-92
2023/01/06 09:12:18;;;;;;;21.50;9.80;;;;;;;;;;8236966;28;20510;-86
2023/01/06 09:16:21;;;;;;;11.75;6.78;;;;;;;;;;8226804;28;20049;-86
2023/01/06 09:20:26;;;;;;;13.90;7.85;;;;;;;;;;8233239;28;20062;-85
2023/01/06 09:24:29;;;;;;;15.10;7.93;;;;;;;;;;8223231;28;20051;-86
2023/01/06 09:28:32;;;;;;;14.70;7.65;;;;;;;;;;8223523;28;20058;-86
2023/01/06 09:32:35;;;;;;;21.58;11.90;;;;;;;;;;8208925;28;20054;-86
2023/01/06 09:36:40;;;;;;;13.65;7.55;;;;;;;;;;8220949;28;20133;-85
2023/01/06 09:40:58;;;;;;;11.63;6.43;;;;;;;;;;8223272;28;20047;-93
2023/01/06 09:45:04;;;;;;;12.68;6.40;;;;;;;;;;8226754;28;20474;-86
2023/01/06 09:49:16;;;;;;;17.60;9.93;;;;;;;;;;8225855;28;20053;-86
2023/01/06 09:53:24;;;;;;;17.55;10.35;;;;;;;;;;8223858;28;20434;-85
2023/01/06 09:57:34;;;;;;;46.70;23.23;;;;;;;;;;8239218;28;20066;-85
2023/01/06 10:01:44;;;;;;;18.95;9.48;;;;;;;;;;8232943;28;20101;-85
2023/01/06 10:06:05;;;;;;;16.77;11.75;;;;;;;;;;8239614;28;20051;-85
2023/01/06 10:10:22;;;;;;;15.15;9.15;;;;;;;;;;8239416;28;20046;-85
2023/01/06 10:14:37;;;;;;;11.60;6.82;;;;;;;;;;8220780;28;20059;-85
2023/01/06 10:18:53;;;;;;;17.70;9.32;;;;;;;;;;8198499;28;20055;-86
2023/01/06 10:23:06;;;;;;;24.58;15.45;;;;;;;;;;8202111;28;20054;-86
2023/01/06 10:27:21;;;;;;;21.90;12.35;;;;;;;;;;8221616;28;20142;-86
2023/01/06 10:31:27;;;;;;;15.73;9.27;;;;;;;;;;8209073;28;20111;-86
2023/01/06 10:35:32;;;;;;;15.70;8.43;;;;;;;;;;8216630;28;20509;-85
2023/01/06 10:39:36;;;;;;;54.97;22.98;;;;;;;;;;8221467;28;20094;-86
2023/01/06 10:43:43;;;;;;;15.07;8.00;;;;;;;;;;8214326;28;20051;-85
2023/01/06 10:47:46;;;;;;;21.02;10.15;;;;;;;;;;8225723;28;20063;-86
2023/01/06 10:51:51;;;;;;;24.23;11.93;;;;;;;;;;8207374;28;20122;-86
2023/01/06 10:55:55;;;;;;;20.58;10.52;;;;;;;;;;8209544;28;20051;-86
2023/01/06 11:00:11;;;;;;;19.77;10.55;;;;;;;;;;8208725;28;20051;-86
2023/01/06 11:04:16;;;;;;;23.13;10.90;;;;;;;;;;8212937;28;20057;-86
2023/01/06 11:08:23;;;;;;;29.55;14.27;;;;;;;;;;8212590;28;20054;-85
2023/01/06 11:12:30;;;;;;;32.92;16.70;;;;;;;;;;8207401;28;20459;-86
2023/01/06 11:16:37;;;;;;;19.20;9.70;;;;;;;;;;8231354;28;20047;-86
2023/01/06 11:20:40;;;;;;;20.17;9.50;;;;;;;;;;8238170;28;20151;-86
2023/01/06 11:24:53;;;;;;;17.08;9.27;;;;;;;;;;8239122;28;20049;-86
2023/01/06 11:29:20;;;;;;;17.27;9.27;;;;;;;;;;8237237;28;20046;-86
2023/01/06 11:33:26;;;;;;;23.65;9.82;;;;;;;;;;8231210;28;20482;-86
2023/01/06 11:37:34;;;;;;;31.02;15.85;;;;;;;;;;8236710;28;20407;-86
2023/01/06 11:41:40;;;;;;;29.83;14.95;;;;;;;;;;8237254;28;20097;-86
2023/01/06 11:45:46;;;;;;;20.33;10.02;;;;;;;;;;8237155;28;20034;-86
2023/01/06 11:49:57;;;;;;;23.80;10.90;;;;;;;;;;8238066;28;20047;-86
2023/01/06 11:54:01;;;;;;;21.33;10.30;;;;;;;;;;8231748;28;20085;-86
2023/01/06 11:58:10;;;;;;;26.60;12.07;;;;;;;;;;8238356;28;20046;-86
2023/01/06 12:02:21;;;;;;;34.40;14.02;;;;;;;;;;8238240;28;20057;-86
2023/01/06 12:06:32;;;;;;;17.27;8.63;;;;;;;;;;8235396;28;20122;-86
2023/01/06 12:10:37;;;;;;;31.92;13.45;;;;;;;;;;8227277;28;20043;-86
2023/01/06 12:14:43;;;;;;;17.75;8.77;;;;;;;;;;8238993;28;20059;-86
2023/01/06 12:18:47;;;;;;;14.55;8.07;;;;;;;;;;8236319;28;20042;-92
2023/01/06 12:22:57;;;;;;;15.45;5.65;;;;;;;;;;8231404;28;20553;-91
2023/01/06 12:27:03;;;;;;;12.60;6.18;;;;;;;;;;8241217;28;20069;-89
2023/01/06 12:31:10;;;;;;;18.13;7.18;;;;;;;;;;8237828;28;20053;-89
2023/01/06 12:35:18;;;;;;;10.38;5.28;;;;;;;;;;8235939;28;20050;-84
2023/01/06 12:39:28;;;;;;;13.77;7.82;;;;;;;;;;8236321;28;20130;-84
2023/01/06 12:43:37;;;;;;;49.83;21.05;;;;;;;;;;8236611;28;20125;-85
2023/01/06 12:47:44;;;;;;;15.00;8.38;;;;;;;;;;8228531;28;20410;-87
2023/01/06 12:51:51;;;;;;;22.58;13.50;;;;;;;;;;8235819;28;20142;-89
2023/01/06 12:56:10;;;;;;;15.30;8.98;;;;;;;;;;8235543;28;20549;-89
2023/01/06 13:00:36;;;;;;;20.23;10.95;;;;;;;;;;8222323;28;20047;-89
2023/01/06 13:04:58;;;;;;;14.93;8.77;;;;;;;;;;8217419;28;20530;-89
2023/01/06 13:09:13;;;;;;;16.98;10.80;;;;;;;;;;8213688;28;21031;-96
2023/01/06 13:13:34;;;;;;;10.25;6.35;;;;;;;;;;8210906;28;20055;-92
2023/01/06 13:17:43;;;;;;;24.20;13.02;;;;;;;;;;8205010;28;20051;-91
2023/01/06 13:21:47;;;;;;;16.67;10.52;;;;;;;;;;8205527;28;20055;-91
2023/01/06 13:26:09;;;;;;;13.52;6.85;;;;;;;;;;8223434;28;20045;-92
2023/01/06 13:30:29;;;;;;;12.60;6.83;;;;;;;;;;8225792;28;20090;-89
2023/01/06 13:35:02;;;;;;;63.13;25.58;;;;;;;;;;8216196;28;20337;-93
2023/01/06 13:39:10;;;;;;;24.70;12.15;;;;;;;;;;8205660;28;20126;-92
2023/01/06 13:43:19;;;;;;;14.98;8.50;;;;;;;;;;8204928;28;20134;-91
2023/01/06 13:47:25;;;;;;;19.52;9.35;;;;;;;;;;8209608;28;20051;-91
2023/01/06 13:51:33;;;;;;;38.53;19.45;;;;;;;;;;8213859;28;20070;-94
2023/01/06 13:55:43;;;;;;;28.80;17.65;;;;;;;;;;8212311;28;20051;-90
2023/01/06 13:59:51;;;;;;;19.35;10.13;;;;;;;;;;8222622;28;20046;-94
2023/01/06 14:04:35;;;;;;;16.20;9.23;;;;;;;;;;8202076;28;20514;-93
2023/01/06 14:08:48;;;;;;;20.00;9.43;;;;;;;;;;8218332;28;20484;-89
2023/01/06 14:12:51;;;;;;;31.35;19.33;;;;;;;;;;8223943;28;20051;-90
2023/01/06 14:16:55;;;;;;;31.95;21.02;;;;;;;;;;8225860;28;20521;-94
2023/01/06 14:21:05;;;;;;;23.75;14.35;;;;;;;;;;8211606;28;20055;-92
2023/01/06 14:25:22;;;;;;;31.48;20.20;;;;;;;;;;8214313;28;20063;-90
2023/01/06 14:30:04;;;;;;;17.95;10.38;;;;;;;;;;8227365;28;20103;-94
2023/01/06 14:34:11;;;;;;;17.20;9.02;;;;;;;;;;8215459;28;20046;-91
2023/01/06 14:38:27;;;;;;;31.17;18.30;;;;;;;;;;8220009;28;20047;-95
2023/01/06 14:42:37;;;;;;;16.60;7.75;;;;;;;;;;8215752;28;20042;-96
2023/01/06 14:46:44;;;;;;;33.78;16.15;;;;;;;;;;8207128;28;20050;-91
2023/01/06 14:50:57;;;;;;;27.60;13.13;;;;;;;;;;8212087;28;20047;-93
2023/01/06 14:55:08;;;;;;;27.83;16.35;;;;;;;;;;8211735;28;20039;-92
2023/01/06 14:59:14;;;;;;;21.55;12.95;;;;;;;;;;8217106;28;20089;-92
2023/01/06 15:03:21;;;;;;;31.27;16.85;;;;;;;;;;8229539;28;20051;-90
2023/01/06 15:07:25;;;;;;;27.00;14.70;;;;;;;;;;8216486;28;20052;-91
2023/01/06 15:11:32;;;;;;;23.05;11.27;;;;;;;;;;8223201;28;20066;-91
2023/01/06 15:15:36;;;;;;;23.73;12.60;;;;;;;;;;8229683;28;20054;-91
2023/01/06 15:19:44;;;;;;;22.92;11.60;;;;;;;;;;8215913;28;20125;-91
2023/01/06 15:23:49;;;;;;;21.88;11.02;;;;;;;;;;8225281;28;20179;-89
2023/01/06 15:27:56;;;;;;;47.38;27.52;;;;;;;;;;8221456;28;20085;-87
2023/01/06 15:32:00;;;;;;;26.27;13.80;;;;;;;;;;8227289;28;20046;-87
2023/01/06 15:36:03;;;;;;;29.08;16.25;;;;;;;;;;8230370;28;20097;-89
2023/01/06 15:40:16;;;;;;;27.40;13.45;;;;;;;;;;8220271;28;20063;-91
2023/01/06 15:44:27;;;;;;;26.60;14.07;;;;;;;;;;8221788;28;20047;-93
2023/01/06 15:48:34;;;;;;;19.02;11.10;;;;;;;;;;8235662;28;20110;-92
2023/01/06 15:52:40;;;;;;;26.02;11.65;;;;;;;;;;8232375;28;20078;-90
2023/01/06 15:56:43;;;;;;;30.27;12.93;;;;;;;;;;8231780;28;20478;-91
2023/01/06 16:00:51;;;;;;;31.33;14.48;;;;;;;;;;8232173;28;20133;-90
2023/01/06 16:04:53;;;;;;;9.88;5.57;;;;;;;;;;8218835;28;20054;-91
2023/01/06 16:09:17;;;;;;;19.98;10.80;;;;;;;;;;8231511;28;20105;-92
2023/01/06 16:13:28;;;;;;;26.38;11.60;;;;;;;;;;8219774;28;20055;-91
2023/01/06 16:17:33;;;;;;;25.75;12.15;;;;;;;;;;8232146;28;20047;-90
2023/01/06 16:21:39;;;;;;;28.00;11.90;;;;;;;;;;8231781;28;20129;-91
2023/01/06 16:25:41;;;;;;;30.52;14.68;;;;;;;;;;8232134;28;20141;-94
2023/01/06 16:29:44;;;;;;;27.88;13.23;;;;;;;;;;8219490;28;20539;-91
2023/01/06 16:33:49;;;;;;;27.58;12.57;;;;;;;;;;8231785;28;20046;-91
2023/01/06 16:37:52;;;;;;;29.33;13.70;;;;;;;;;;8223229;28;20048;-91
2023/01/06 16:46:41;;;;;;;33.35;14.48;;;;;;;;;;8230204;28;20054;-91
2023/01/06 16:50:49;;;;;;;35.67;15.32;;;;;;;;;;8212931;28;20075;-91
2023/01/06 16:54:54;;;;;;;28.55;14.30;;;;;;;;;;8225906;28;20051;-91
2023/01/06 16:58:56;;;;;;;37.13;15.38;;;;;;;;;;8222046;28;20479;-92
2023/01/06 17:02:59;;;;;;;27.77;11.68;;;;;;;;;;8231496;28;20050;-92
2023/01/06 17:07:11;;;;;;;30.80;12.82;;;;;;;;;;8235445;28;20043;-92
2023/01/06 17:11:18;;;;;;;30.77;14.45;;;;;;;;;;8239400;28;20042;-91
2023/01/06 17:15:20;;;;;;;29.20;13.60;;;;;;;;;;8224415;28;20054;-92
2023/01/06 17:19:26;;;;;;;24.85;12.55;;;;;;;;;;8237631;28;20051;-92
2023/01/06 17:23:39;;;;;;;17.27;7.28;;;;;;;;;;8237187;28;20451;-91
2023/01/06 17:27:45;;;;;;;29.95;14.35;;;;;;;;;;8213097;28;20057;-92
2023/01/06 17:31:50;;;;;;;20.23;8.15;;;;;;;;;;8242497;28;20522;-91
2023/01/06 17:35:56;;;;;;;29.73;13.32;;;;;;;;;;8230048;28;20049;-92
2023/01/06 17:40:03;;;;;;;26.38;12.23;;;;;;;;;;8231769;28;20117;-92
2023/01/06 17:44:14;;;;;;;23.80;11.77;;;;;;;;;;8224187;28;20043;-91
2023/01/06 17:48:17;;;;;;;16.15;6.68;;;;;;;;;;8236426;28;20051;-90
2023/01/06 17:52:23;;;;;;;18.85;9.90;;;;;;;;;;8219369;28;20125;-95
2023/01/06 17:56:27;;;;;;;25.65;11.65;;;;;;;;;;8214750;28;20130;-96
2023/01/06 18:00:34;;;;;;;25.42;12.30;;;;;;;;;;8217327;28;20505;-93
2023/01/06 18:04:38;;;;;;;39.90;16.20;;;;;;;;;;8213922;28;20141;-91
2023/01/06 18:08:43;;;;;;;23.50;11.38;;;;;;;;;;8233032;28;20047;-95
2023/01/06 18:12:55;;;;;;;23.08;10.75;;;;;;;;;;8225206;28;20058;-91
2023/01/06 18:17:03;;;;;;;27.55;13.65;;;;;;;;;;8223194;28;20143;-95
2023/01/06 18:21:26;;;;;;;25.48;13.07;;;;;;;;;;8226962;28;20047;-93
2023/01/06 18:25:29;;;;;;;25.30;11.15;;;;;;;;;;8231337;28;20119;-95
2023/01/06 18:29:40;;;;;;;31.63;15.05;;;;;;;;;;8209265;28;20112;-96
2023/01/06 18:33:43;;;;;;;18.70;8.65;;;;;;;;;;8225057;28;20131;-92
2023/01/06 18:37:47;;;;;;;22.13;11.13;;;;;;;;;;8204912;28;20039;-93
2023/01/06 18:42:02;;;;;;;26.08;12.75;;;;;;;;;;8226773;28;20049;-90
2023/01/06 18:46:14;;;;;;;24.92;12.65;;;;;;;;;;8216014;28;20136;-91
2023/01/06 18:50:28;;;;;;;29.35;13.93;;;;;;;;;;8216308;28;20043;-93
2023/01/06 18:54:32;;;;;;;33.83;14.38;;;;;;;;;;8209703;28;20772;-90
2023/01/06 18:58:45;;;;;;;25.17;11.55;;;;;;;;;;8223455;28;20126;-91
2023/01/06 19:02:52;;;;;;;;;;;;;;;;;;8232187;28;20050;-90
2023/01/06 19:07:01;;;;;;;21.67;10.35;;;;;;;;;;8223766;28;20294;-92
2023/01/06 19:11:12;;;;;;;35.08;17.45;;;;;;;;;;8225138;28;20102;-88
2023/01/06 19:15:19;;;;;;;31.02;14.68;;;;;;;;;;8224192;28;20061;-89
2023/01/06 19:19:27;;;;;;;34.90;15.50;;;;;;;;;;8202768;28;20055;-90
2023/01/06 19:23:32;;;;;;;36.78;17.92;;;;;;;;;;8211377;28;20098;-91
2023/01/06 19:27:47;;;;;;;44.08;20.55;;;;;;;;;;8202726;28;20411;-93
2023/01/06 19:31:54;;;;;;;39.60;17.88;;;;;;;;;;8209281;28;20059;-93
2023/01/06 19:36:20;;;;;;;35.63;15.73;;;;;;;;;;8202297;28;20439;-91
2023/01/06 19:40:27;;;;;;;31.33;15.30;;;;;;;;;;8207422;28;20122;-89
2023/01/06 19:44:33;;;;;;;37.38;18.15;;;;;;;;;;8210141;28;20082;-91
2023/01/06 19:48:40;;;;;;;39.63;18.15;;;;;;;;;;8222067;28;20074;-93
2023/01/06 19:52:45;;;;;;;43.53;19.52;;;;;;;;;;8217513;28;20055;-94
2023/01/06 19:56:50;;;;;;;27.88;13.82;;;;;;;;;;8219015;28;20106;-92
2023/01/06 20:00:55;;;;;;;57.90;24.23;;;;;;;;;;8221021;28;20058;-91
2023/01/06 20:04:59;;;;;;;40.10;17.92;;;;;;;;;;8225516;28;20483;-93
2023/01/06 20:09:04;;;;;;;60.90;24.00;;;;;;;;;;8229335;28;20514;-90
2023/01/06 20:13:07;;;;;;;65.03;27.45;;;;;;;;;;8216337;28;20074;-94
2023/01/06 20:17:11;;;;;;;85.03;34.67;;;;;;;;;;8213310;28;20078;-91
2023/01/06 20:21:14;;;;;;;43.72;18.92;;;;;;;;;;8202267;28;20047;-93
2023/01/06 20:25:20;;;;;;;29.90;13.18;;;;;;;;;;8210135;28;20051;-94
2023/01/06 20:29:23;;;;;;;97.45;36.92;;;;;;;;;;8209959;28;20055;-90
2023/01/06 20:33:26;;;;;;;57.95;22.65;;;;;;;;;;8233918;28;20051;-93
2023/01/06 20:37:30;;;;;;;96.13;38.25;;;;;;;;;;8216613;28;20129;-92
2023/01/06 20:41:35;;;;;;;66.63;29.95;;;;;;;;;;8216214;28;20630;-93
2023/01/06 20:45:38;;;;;;;41.95;19.83;;;;;;;;;;8232659;28;20130;-92
2023/01/06 20:49:41;;;;;;;47.45;21.42;;;;;;;;;;8223624;28;20060;-90
2023/01/06 20:53:44;;;;;;;92.20;36.92;;;;;;;;;;8226227;28;20105;-93
2023/01/06 20:57:48;;;;;;;90.13;32.33;;;;;;;;;;8225953;28;20078;-89
2023/01/06 21:01:53;;;;;;;52.40;22.83;;;;;;;;;;8216534;28;20495;-90
2023/01/06 21:05:56;;;;;;;86.28;38.08;;;;;;;;;;8235858;28;20058;-87
2023/01/06 21:09:59;;;;;;;64.20;28.48;;;;;;;;;;8211459;28;20133;-87
2023/01/06 21:14:06;;;;;;;40.30;18.83;;;;;;;;;;8228650;28;20079;-86
2023/01/06 21:18:10;;;;;;;41.60;20.00;;;;;;;;;;8178345;28;20657;-88
2023/01/06 21:22:12;;;;;;;38.17;18.13;;;;;;;;;;8175335;28;20047;-88
2023/01/06 21:26:16;;;;;;;35.25;18.02;;;;;;;;;;8172650;28;20070;-85
2023/01/06 21:30:23;;;;;;;35.60;15.32;;;;;;;;;;8185050;28;20110;-86
2023/01/06 21:34:27;;;;;;;41.03;18.45;;;;;;;;;;8186944;28;20040;-87
2023/01/06 21:38:33;;;;;;;45.58;16.95;;;;;;;;;;8203891;28;20392;-89
2023/01/06 21:46:59;;;;;;;44.72;17.40;;;;;;;;;;8203890;28;20046;-86
2023/01/06 21:51:02;;;;;;;47.53;18.63;;;;;;;;;;8203637;28;20623;-92
2023/01/06 21:55:06;;;;;;;40.67;16.35;;;;;;;;;;8203895;28;20455;-88
2023/01/06 21:59:09;;;;;;;39.95;16.95;;;;;;;;;;8191174;29;20075;-91
2023/01/06 22:03:13;;;;;;;40.40;16.30;;;;;;;;;;8202364;28;20047;-87
2023/01/06 22:07:16;;;;;;;37.10;15.65;;;;;;;;;;8190979;29;20058;-87
2023/01/06 22:11:19;;;;;;;33.75;15.75;;;;;;;;;;8204019;28;20061;-88
2023/01/06 22:15:23;;;;;;;34.92;16.20;;;;;;;;;;8234660;28;20130;-87
2023/01/06 22:19:28;;;;;;;28.40;12.05;;;;;;;;;;8234380;28;20038;-87
2023/01/06 22:23:32;;;;;;;32.30;14.63;;;;;;;;;;8234606;28;20517;-88
2023/01/06 22:27:35;;;;;;;33.53;13.18;;;;;;;;;;8234083;28;20039;-88
2023/01/06 22:31:38;;;;;;;31.83;14.88;;;;;;;;;;8234041;28;20051;-88
2023/01/06 22:35:42;;;;;;;23.00;12.68;;;;;;;;;;8233988;28;20133;-87
2023/01/06 22:39:48;;;;;;;26.52;13.05;;;;;;;;;;8233740;28;20133;-87
2023/01/06 22:43:50;;;;;;;24.77;13.02;;;;;;;;;;8233853;28;20039;-86
2023/01/06 22:47:53;;;;;;;31.70;14.57;;;;;;;;;;8233814;28;20129;-87
2023/01/06 22:51:57;;;;;;;26.92;13.68;;;;;;;;;;8233523;28;20046;-86
2023/01/06 22:56:02;;;;;;;30.80;13.55;;;;;;;;;;8233259;28;20050;-87
2023/01/06 23:00:11;;;;;;;28.17;13.77;;;;;;;;;;8233230;28;20498;-87
2023/01/06 23:04:14;;;;;;;28.27;12.95;;;;;;;;;;8232363;28;20050;-86
2023/01/06 23:08:18;;;;;;;25.00;11.63;;;;;;;;;;8233086;28;20051;-87
2023/01/06 23:12:21;;;;;;;32.53;15.57;;;;;;;;;;8232586;28;20082;-89
2023/01/06 23:16:25;;;;;;;21.40;9.85;;;;;;;;;;8232798;28;20127;-87
2023/01/06 23:20:29;;;;;;;23.85;11.10;;;;;;;;;;8232662;28;20073;-87
2023/01/06 23:24:33;;;;;;;18.35;8.82;;;;;;;;;;8225548;28;20047;-87
2023/01/06 23:28:37;;;;;;;18.13;9.88;;;;;;;;;;8214481;28;20042;-86
2023/01/06 23:32:39;;;;;;;19.65;11.52;;;;;;;;;;8232381;28;20050;-89
2023/01/06 23:36:43;;;;;;;21.92;10.98;;;;;;;;;;8232122;28;20104;-86
2023/01/06 23:40:47;;;;;;;15.30;7.32;;;;;;;;;;8232297;28;20047;-87
2023/01/06 23:44:50;;;;;;;19.55;10.95;;;;;;;;;;8227924;28;20465;-87
2023/01/06 23:48:53;;;;;;;20.30;11.38;;;;;;;;;;8222736;28;20038;-87
2023/01/06 23:52:56;;;;;;;21.48;11.48;;;;;;;;;;8219101;28;20059;-87
2023/01/06 23:57:00;;;;;;;14.75;8.57;;;;;;;;;;8190963;28;20495;-87
